CPX796 Details

Departure: Guarulhos International Airport (SBGR)
Arrival: Miami International Airport (KMIA)
Route: UKBE1C UKBEV ASTOB UM417 OBGAT UZ21 VUMPI UL795 URSUS FLIPR6


Current Weather Information
SBGR 250200Z 25007KT 9999 SCT023 15/13 Q1015
KMIA 250153Z 05009KT 10SM FEW040 26/18 A3008 RMK AO2 SLP186 T02610183